sensor_id;sensor_type;location;lat;lon;timestamp;P1;durP1;ratioP1;P2;durP2;ratioP2
23444;SDS011;11895;48.738;9.320;2023-05-16T00:02:04;7.03;;;6.03;;
23444;SDS011;11895;48.738;9.320;2023-05-16T00:04:32;9.00;;;6.82;;
23444;SDS011;11895;48.738;9.320;2023-05-16T00:06:59;13.90;;;6.80;;
23444;SDS011;11895;48.738;9.320;2023-05-16T00:09:27;12.60;;;6.72;;
23444;SDS011;11895;48.738;9.320;2023-05-16T00:11:55;8.52;;;6.28;;
23444;SDS011;11895;48.738;9.320;2023-05-16T00:14:22;9.25;;;6.22;;
23444;SDS011;11895;48.738;9.320;2023-05-16T00:19:19;9.60;;;6.30;;
23444;SDS011;11895;48.738;9.320;2023-05-16T00:21:47;10.82;;;6.63;;
23444;SDS011;11895;48.738;9.320;2023-05-16T00:24:15;9.95;;;6.97;;
23444;SDS011;11895;48.738;9.320;2023-05-16T00:26:42;8.45;;;6.82;;
23444;SDS011;11895;48.738;9.320;2023-05-16T00:29:10;13.82;;;8.10;;
23444;SDS011;11895;48.738;9.320;2023-05-16T00:31:38;10.52;;;8.13;;
23444;SDS011;11895;48.738;9.320;2023-05-16T00:34:06;10.70;;;8.40;;
23444;SDS011;11895;48.738;9.320;2023-05-16T00:36:33;11.35;;;8.40;;
23444;SDS011;11895;48.738;9.320;2023-05-16T00:39:02;9.95;;;7.60;;
23444;SDS011;11895;48.738;9.320;2023-05-16T00:41:29;11.32;;;8.13;;
23444;SDS011;11895;48.738;9.320;2023-05-16T00:43:57;11.43;;;8.00;;
23444;SDS011;11895;48.738;9.320;2023-05-16T00:46:25;13.40;;;9.68;;
23444;SDS011;11895;48.738;9.320;2023-05-16T00:48:53;16.10;;;11.27;;
23444;SDS011;11895;48.738;9.320;2023-05-16T00:51:20;14.23;;;9.02;;
23444;SDS011;11895;48.738;9.320;2023-05-16T00:53:48;11.20;;;7.47;;
23444;SDS011;11895;48.738;9.320;2023-05-16T00:56:17;16.52;;;7.95;;
23444;SDS011;11895;48.738;9.320;2023-05-16T00:58:44;10.90;;;9.13;;
23444;SDS011;11895;48.738;9.320;2023-05-16T01:01:11;17.67;;;9.23;;
23444;SDS011;11895;48.738;9.320;2023-05-16T01:03:39;10.52;;;8.35;;
23444;SDS011;11895;48.738;9.320;2023-05-16T01:06:12;12.00;;;9.57;;
23444;SDS011;11895;48.738;9.320;2023-05-16T01:08:39;13.85;;;8.73;;
23444;SDS011;11895;48.738;9.320;2023-05-16T01:11:11;12.07;;;8.55;;
23444;SDS011;11895;48.738;9.320;2023-05-16T01:25:49;11.32;;;8.88;;
23444;SDS011;11895;48.738;9.320;2023-05-16T01:28:23;14.27;;;9.05;;
23444;SDS011;11895;48.738;9.320;2023-05-16T01:30:52;11.02;;;8.48;;
23444;SDS011;11895;48.738;9.320;2023-05-16T01:33:20;13.52;;;10.05;;
23444;SDS011;11895;48.738;9.320;2023-05-16T01:35:57;10.38;;;8.73;;
23444;SDS011;11895;48.738;9.320;2023-05-16T01:43:07;12.60;;;9.32;;
23444;SDS011;11895;48.738;9.320;2023-05-16T01:49:30;12.52;;;8.35;;
23444;SDS011;11895;48.738;9.320;2023-05-16T01:56:16;10.30;;;8.40;;
23444;SDS011;11895;48.738;9.320;2023-05-16T02:02:39;9.27;;;7.57;;
23444;SDS011;11895;48.738;9.320;2023-05-16T02:08:51;14.82;;;8.70;;
23444;SDS011;11895;48.738;9.320;2023-05-16T02:33:48;13.82;;;9.43;;
23444;SDS011;11895;48.738;9.320;2023-05-16T02:40:02;21.90;;;11.55;;
23444;SDS011;11895;48.738;9.320;2023-05-16T02:42:35;15.85;;;10.98;;
23444;SDS011;11895;48.738;9.320;2023-05-16T02:45:02;14.02;;;10.93;;
23444;SDS011;11895;48.738;9.320;2023-05-16T02:47:30;17.83;;;10.60;;
23444;SDS011;11895;48.738;9.320;2023-05-16T02:49:58;14.00;;;9.85;;
23444;SDS011;11895;48.738;9.320;2023-05-16T02:52:26;11.57;;;9.02;;
23444;SDS011;11895;48.738;9.320;2023-05-16T02:54:53;18.85;;;11.57;;
23444;SDS011;11895;48.738;9.320;2023-05-16T02:57:40;13.35;;;8.95;;
23444;SDS011;11895;48.738;9.320;2023-05-16T03:00:11;12.60;;;9.48;;
23444;SDS011;11895;48.738;9.320;2023-05-16T03:02:41;13.77;;;9.77;;
23444;SDS011;11895;48.738;9.320;2023-05-16T03:05:09;13.57;;;9.45;;
23444;SDS011;11895;48.738;9.320;2023-05-16T03:07:37;21.33;;;10.27;;
23444;SDS011;11895;48.738;9.320;2023-05-16T03:10:05;15.48;;;10.30;;
23444;SDS011;11895;48.738;9.320;2023-05-16T03:12:33;15.82;;;10.15;;
23444;SDS011;11895;48.738;9.320;2023-05-16T03:15:00;13.02;;;9.45;;
23444;SDS011;11895;48.738;9.320;2023-05-16T03:17:28;17.55;;;9.98;;
23444;SDS011;11895;48.738;9.320;2023-05-16T03:19:56;18.08;;;10.50;;
23444;SDS011;11895;48.738;9.320;2023-05-16T03:22:23;26.58;;;11.50;;
23444;SDS011;11895;48.738;9.320;2023-05-16T03:24:50;13.85;;;10.48;;
23444;SDS011;11895;48.738;9.320;2023-05-16T03:27:17;14.30;;;10.23;;
23444;SDS011;11895;48.738;9.320;2023-05-16T03:29:44;14.38;;;11.02;;
23444;SDS011;11895;48.738;9.320;2023-05-16T03:32:12;12.02;;;9.20;;
23444;SDS011;11895;48.738;9.320;2023-05-16T03:34:40;18.40;;;10.02;;
23444;SDS011;11895;48.738;9.320;2023-05-16T03:37:08;14.90;;;10.13;;
23444;SDS011;11895;48.738;9.320;2023-05-16T03:39:36;15.50;;;10.82;;
23444;SDS011;11895;48.738;9.320;2023-05-16T03:42:04;15.50;;;10.40;;
23444;SDS011;11895;48.738;9.320;2023-05-16T03:44:34;16.60;;;10.23;;
23444;SDS011;11895;48.738;9.320;2023-05-16T03:47:01;18.83;;;10.88;;
23444;SDS011;11895;48.738;9.320;2023-05-16T03:49:28;15.88;;;10.60;;
23444;SDS011;11895;48.738;9.320;2023-05-16T03:51:56;14.95;;;11.00;;
23444;SDS011;11895;48.738;9.320;2023-05-16T03:54:23;13.68;;;10.95;;
23444;SDS011;11895;48.738;9.320;2023-05-16T03:56:50;14.02;;;9.88;;
23444;SDS011;11895;48.738;9.320;2023-05-16T03:59:17;16.70;;;10.13;;
23444;SDS011;11895;48.738;9.320;2023-05-16T04:01:45;13.40;;;10.30;;
23444;SDS011;11895;48.738;9.320;2023-05-16T04:04:13;18.42;;;10.95;;
23444;SDS011;11895;48.738;9.320;2023-05-16T04:06:40;14.45;;;10.43;;
23444;SDS011;11895;48.738;9.320;2023-05-16T04:09:08;13.10;;;10.10;;
23444;SDS011;11895;48.738;9.320;2023-05-16T04:11:35;14.73;;;10.02;;
23444;SDS011;11895;48.738;9.320;2023-05-16T04:14:04;14.73;;;9.43;;
23444;SDS011;11895;48.738;9.320;2023-05-16T04:16:31;17.60;;;10.65;;
23444;SDS011;11895;48.738;9.320;2023-05-16T04:19:04;17.95;;;10.05;;
23444;SDS011;11895;48.738;9.320;2023-05-16T04:21:32;16.45;;;10.75;;
23444;SDS011;11895;48.738;9.320;2023-05-16T04:24:01;16.77;;;10.23;;
23444;SDS011;11895;48.738;9.320;2023-05-16T04:26:29;13.70;;;11.07;;
23444;SDS011;11895;48.738;9.320;2023-05-16T04:29:01;21.17;;;11.20;;
23444;SDS011;11895;48.738;9.320;2023-05-16T04:31:29;17.25;;;11.48;;
23444;SDS011;11895;48.738;9.320;2023-05-16T04:33:57;16.30;;;10.77;;
23444;SDS011;11895;48.738;9.320;2023-05-16T04:36:25;22.25;;;12.05;;
23444;SDS011;11895;48.738;9.320;2023-05-16T04:38:55;17.73;;;11.95;;
23444;SDS011;11895;48.738;9.320;2023-05-16T04:41:23;20.58;;;12.07;;
23444;SDS011;11895;48.738;9.320;2023-05-16T04:43:50;16.17;;;11.90;;
23444;SDS011;11895;48.738;9.320;2023-05-16T04:46:19;18.00;;;12.33;;
23444;SDS011;11895;48.738;9.320;2023-05-16T04:48:46;19.88;;;13.25;;
23444;SDS011;11895;48.738;9.320;2023-05-16T04:51:13;20.85;;;12.90;;
23444;SDS011;11895;48.738;9.320;2023-05-16T04:53:41;28.63;;;17.08;;
23444;SDS011;11895;48.738;9.320;2023-05-16T04:56:08;22.98;;;15.60;;
23444;SDS011;11895;48.738;9.320;2023-05-16T04:58:35;27.50;;;16.60;;
23444;SDS011;11895;48.738;9.320;2023-05-16T05:01:02;24.88;;;16.13;;
23444;SDS011;11895;48.738;9.320;2023-05-16T05:03:30;25.88;;;16.70;;
23444;SDS011;11895;48.738;9.320;2023-05-16T05:05:59;27.90;;;17.58;;
23444;SDS011;11895;48.738;9.320;2023-05-16T05:08:26;41.10;;;27.73;;
23444;SDS011;11895;48.738;9.320;2023-05-16T05:10:54;49.28;;;31.35;;
23444;SDS011;11895;48.738;9.320;2023-05-16T05:13:22;51.90;;;33.55;;
23444;SDS011;11895;48.738;9.320;2023-05-16T05:15:50;49.47;;;31.77;;
23444;SDS011;11895;48.738;9.320;2023-05-16T05:18:17;54.00;;;34.45;;
23444;SDS011;11895;48.738;9.320;2023-05-16T05:20:45;56.30;;;36.50;;
23444;SDS011;11895;48.738;9.320;2023-05-16T05:23:14;60.78;;;37.08;;
23444;SDS011;11895;48.738;9.320;2023-05-16T05:25:42;55.65;;;35.92;;
23444;SDS011;11895;48.738;9.320;2023-05-16T05:28:10;54.38;;;35.08;;
23444;SDS011;11895;48.738;9.320;2023-05-16T05:30:37;49.38;;;33.28;;
23444;SDS011;11895;48.738;9.320;2023-05-16T05:33:10;50.72;;;33.47;;
23444;SDS011;11895;48.738;9.320;2023-05-16T05:35:43;51.22;;;33.10;;
23444;SDS011;11895;48.738;9.320;2023-05-16T05:38:11;54.45;;;33.80;;
23444;SDS011;11895;48.738;9.320;2023-05-16T05:40:39;53.60;;;34.08;;
23444;SDS011;11895;48.738;9.320;2023-05-16T05:43:07;54.65;;;33.58;;
23444;SDS011;11895;48.738;9.320;2023-05-16T05:45:34;55.38;;;35.33;;
23444;SDS011;11895;48.738;9.320;2023-05-16T05:48:03;49.00;;;31.10;;
23444;SDS011;11895;48.738;9.320;2023-05-16T05:50:30;50.03;;;32.78;;
23444;SDS011;11895;48.738;9.320;2023-05-16T05:52:58;50.72;;;30.80;;
23444;SDS011;11895;48.738;9.320;2023-05-16T05:55:25;45.58;;;30.45;;
23444;SDS011;11895;48.738;9.320;2023-05-16T05:57:54;50.15;;;31.52;;
23444;SDS011;11895;48.738;9.320;2023-05-16T06:00:24;48.60;;;32.25;;
23444;SDS011;11895;48.738;9.320;2023-05-16T06:02:52;52.17;;;32.83;;
23444;SDS011;11895;48.738;9.320;2023-05-16T06:05:19;46.85;;;30.92;;
23444;SDS011;11895;48.738;9.320;2023-05-16T06:07:47;41.45;;;27.75;;
23444;SDS011;11895;48.738;9.320;2023-05-16T06:10:17;45.20;;;28.77;;
23444;SDS011;11895;48.738;9.320;2023-05-16T06:12:45;47.83;;;30.48;;
23444;SDS011;11895;48.738;9.320;2023-05-16T06:15:12;45.95;;;29.02;;
23444;SDS011;11895;48.738;9.320;2023-05-16T06:17:39;39.13;;;27.73;;
23444;SDS011;11895;48.738;9.320;2023-05-16T06:20:07;41.50;;;27.15;;
23444;SDS011;11895;48.738;9.320;2023-05-16T06:22:35;41.63;;;27.92;;
23444;SDS011;11895;48.738;9.320;2023-05-16T06:25:03;43.08;;;27.77;;
23444;SDS011;11895;48.738;9.320;2023-05-16T06:27:32;40.20;;;27.90;;
23444;SDS011;11895;48.738;9.320;2023-05-16T06:30:00;40.50;;;27.57;;
23444;SDS011;11895;48.738;9.320;2023-05-16T06:32:29;37.70;;;25.20;;
23444;SDS011;11895;48.738;9.320;2023-05-16T06:34:57;39.30;;;26.08;;
23444;SDS011;11895;48.738;9.320;2023-05-16T06:37:24;41.72;;;24.20;;
23444;SDS011;11895;48.738;9.320;2023-05-16T06:39:52;39.40;;;22.77;;
23444;SDS011;11895;48.738;9.320;2023-05-16T06:42:20;38.75;;;24.23;;
23444;SDS011;11895;48.738;9.320;2023-05-16T06:44:48;50.83;;;32.83;;
23444;SDS011;11895;48.738;9.320;2023-05-16T06:47:16;34.53;;;24.45;;
23444;SDS011;11895;48.738;9.320;2023-05-16T06:49:44;36.03;;;21.38;;
23444;SDS011;11895;48.738;9.320;2023-05-16T06:52:11;32.58;;;21.65;;
23444;SDS011;11895;48.738;9.320;2023-05-16T06:54:38;31.52;;;21.65;;
23444;SDS011;11895;48.738;9.320;2023-05-16T06:57:05;25.55;;;19.25;;
23444;SDS011;11895;48.738;9.320;2023-05-16T06:59:34;30.20;;;20.17;;
23444;SDS011;11895;48.738;9.320;2023-05-16T07:02:02;31.67;;;21.33;;
23444;SDS011;11895;48.738;9.320;2023-05-16T07:04:30;29.65;;;19.05;;
23444;SDS011;11895;48.738;9.320;2023-05-16T07:06:58;31.17;;;19.80;;
23444;SDS011;11895;48.738;9.320;2023-05-16T07:09:26;31.08;;;20.02;;
23444;SDS011;11895;48.738;9.320;2023-05-16T07:11:54;26.47;;;17.93;;
23444;SDS011;11895;48.738;9.320;2023-05-16T07:14:21;28.67;;;18.33;;
23444;SDS011;11895;48.738;9.320;2023-05-16T07:16:49;25.90;;;17.58;;
23444;SDS011;11895;48.738;9.320;2023-05-16T07:19:16;26.30;;;17.75;;
23444;SDS011;11895;48.738;9.320;2023-05-16T07:21:46;29.05;;;18.75;;
23444;SDS011;11895;48.738;9.320;2023-05-16T07:24:14;22.70;;;16.40;;
23444;SDS011;11895;48.738;9.320;2023-05-16T07:26:42;30.98;;;16.98;;
23444;SDS011;11895;48.738;9.320;2023-05-16T07:29:10;27.73;;;17.17;;
23444;SDS011;11895;48.738;9.320;2023-05-16T07:31:38;25.30;;;17.23;;
23444;SDS011;11895;48.738;9.320;2023-05-16T07:34:06;22.85;;;15.60;;
23444;SDS011;11895;48.738;9.320;2023-05-16T07:36:33;24.65;;;15.90;;
23444;SDS011;11895;48.738;9.320;2023-05-16T07:39:01;24.65;;;16.23;;
23444;SDS011;11895;48.738;9.320;2023-05-16T07:41:29;20.90;;;14.50;;
23444;SDS011;11895;48.738;9.320;2023-05-16T07:43:57;18.45;;;13.35;;
23444;SDS011;11895;48.738;9.320;2023-05-16T07:46:25;18.98;;;13.25;;
23444;SDS011;11895;48.738;9.320;2023-05-16T07:48:52;17.65;;;13.80;;
23444;SDS011;11895;48.738;9.320;2023-05-16T07:51:20;18.80;;;12.50;;
23444;SDS011;11895;48.738;9.320;2023-05-16T07:53:47;19.15;;;13.32;;
23444;SDS011;11895;48.738;9.320;2023-05-16T07:56:14;22.63;;;15.15;;
23444;SDS011;11895;48.738;9.320;2023-05-16T07:58:42;18.58;;;13.82;;
23444;SDS011;11895;48.738;9.320;2023-05-16T08:01:09;17.73;;;13.52;;
23444;SDS011;11895;48.738;9.320;2023-05-16T08:03:37;18.77;;;11.73;;
23444;SDS011;11895;48.738;9.320;2023-05-16T08:06:05;19.75;;;13.07;;
23444;SDS011;11895;48.738;9.320;2023-05-16T08:08:33;18.27;;;13.35;;
23444;SDS011;11895;48.738;9.320;2023-05-16T08:11:20;15.70;;;10.88;;
23444;SDS011;11895;48.738;9.320;2023-05-16T08:14:06;16.45;;;11.52;;
23444;SDS011;11895;48.738;9.320;2023-05-16T08:16:33;16.85;;;12.10;;
23444;SDS011;11895;48.738;9.320;2023-05-16T08:19:01;16.67;;;12.93;;
23444;SDS011;11895;48.738;9.320;2023-05-16T08:21:28;15.20;;;11.43;;
23444;SDS011;11895;48.738;9.320;2023-05-16T08:23:57;15.77;;;11.55;;
23444;SDS011;11895;48.738;9.320;2023-05-16T08:26:24;13.95;;;11.05;;
23444;SDS011;11895;48.738;9.320;2023-05-16T08:28:52;16.17;;;9.93;;
23444;SDS011;11895;48.738;9.320;2023-05-16T08:31:19;14.68;;;10.95;;
23444;SDS011;11895;48.738;9.320;2023-05-16T08:33:47;15.30;;;9.93;;
23444;SDS011;11895;48.738;9.320;2023-05-16T08:36:14;15.65;;;11.30;;
23444;SDS011;11895;48.738;9.320;2023-05-16T08:38:45;13.85;;;10.68;;
23444;SDS011;11895;48.738;9.320;2023-05-16T08:41:13;13.23;;;9.85;;
23444;SDS011;11895;48.738;9.320;2023-05-16T08:43:40;14.43;;;9.60;;
23444;SDS011;11895;48.738;9.320;2023-05-16T08:46:07;14.77;;;9.75;;
23444;SDS011;11895;48.738;9.320;2023-05-16T08:48:35;14.73;;;10.52;;
23444;SDS011;11895;48.738;9.320;2023-05-16T08:51:05;14.55;;;10.75;;
23444;SDS011;11895;48.738;9.320;2023-05-16T08:53:45;18.85;;;10.65;;
23444;SDS011;11895;48.738;9.320;2023-05-16T08:56:28;15.45;;;11.13;;
23444;SDS011;11895;48.738;9.320;2023-05-16T08:59:08;16.45;;;10.65;;
23444;SDS011;11895;48.738;9.320;2023-05-16T09:01:37;14.45;;;11.02;;
23444;SDS011;11895;48.738;9.320;2023-05-16T09:04:05;17.03;;;10.27;;
23444;SDS011;11895;48.738;9.320;2023-05-16T09:06:35;16.10;;;9.88;;
23444;SDS011;11895;48.738;9.320;2023-05-16T09:09:03;14.13;;;10.95;;
23444;SDS011;11895;48.738;9.320;2023-05-16T09:11:33;12.85;;;10.38;;
23444;SDS011;11895;48.738;9.320;2023-05-16T09:16:31;14.40;;;10.80;;
23444;SDS011;11895;48.738;9.320;2023-05-16T09:18:58;16.90;;;11.68;;
23444;SDS011;11895;48.738;9.320;2023-05-16T09:21:33;17.25;;;11.93;;
23444;SDS011;11895;48.738;9.320;2023-05-16T09:24:04;18.45;;;11.75;;
23444;SDS011;11895;48.738;9.320;2023-05-16T09:26:36;16.25;;;12.30;;
23444;SDS011;11895;48.738;9.320;2023-05-16T09:29:11;15.32;;;11.95;;
23444;SDS011;11895;48.738;9.320;2023-05-16T09:31:40;17.67;;;13.23;;
23444;SDS011;11895;48.738;9.320;2023-05-16T09:34:08;13.95;;;11.18;;
23444;SDS011;11895;48.738;9.320;2023-05-16T09:36:39;22.40;;;11.85;;
23444;SDS011;11895;48.738;9.320;2023-05-16T09:39:09;17.73;;;13.27;;
23444;SDS011;11895;48.738;9.320;2023-05-16T09:41:50;18.23;;;14.35;;
23444;SDS011;11895;48.738;9.320;2023-05-16T09:44:18;18.88;;;14.43;;
23444;SDS011;11895;48.738;9.320;2023-05-16T09:46:45;21.05;;;15.30;;
23444;SDS011;11895;48.738;9.320;2023-05-16T09:49:12;25.52;;;15.95;;
23444;SDS011;11895;48.738;9.320;2023-05-16T09:51:40;23.55;;;16.77;;
23444;SDS011;11895;48.738;9.320;2023-05-16T09:54:07;24.63;;;17.15;;
23444;SDS011;11895;48.738;9.320;2023-05-16T09:56:47;21.58;;;17.02;;
23444;SDS011;11895;48.738;9.320;2023-05-16T09:59:16;22.83;;;17.33;;
23444;SDS011;11895;48.738;9.320;2023-05-16T10:01:43;29.17;;;19.00;;
23444;SDS011;11895;48.738;9.320;2023-05-16T10:04:12;24.35;;;18.27;;
23444;SDS011;11895;48.738;9.320;2023-05-16T10:06:41;29.23;;;20.40;;
23444;SDS011;11895;48.738;9.320;2023-05-16T10:09:11;29.60;;;19.45;;
23444;SDS011;11895;48.738;9.320;2023-05-16T10:11:41;29.08;;;20.30;;
23444;SDS011;11895;48.738;9.320;2023-05-16T10:14:10;27.60;;;18.98;;
23444;SDS011;11895;48.738;9.320;2023-05-16T10:16:42;31.50;;;20.35;;
23444;SDS011;11895;48.738;9.320;2023-05-16T10:19:15;27.55;;;19.92;;
23444;SDS011;11895;48.738;9.320;2023-05-16T10:21:48;27.90;;;19.00;;
23444;SDS011;11895;48.738;9.320;2023-05-16T10:24:23;26.98;;;18.70;;
23444;SDS011;11895;48.738;9.320;2023-05-16T10:26:59;26.23;;;18.15;;
23444;SDS011;11895;48.738;9.320;2023-05-16T10:29:28;30.88;;;19.20;;
23444;SDS011;11895;48.738;9.320;2023-05-16T10:32:12;30.20;;;19.63;;
23444;SDS011;11895;48.738;9.320;2023-05-16T10:34:41;26.75;;;18.25;;
23444;SDS011;11895;48.738;9.320;2023-05-16T10:37:09;28.77;;;19.03;;
23444;SDS011;11895;48.738;9.320;2023-05-16T10:39:37;26.67;;;19.55;;
23444;SDS011;11895;48.738;9.320;2023-05-16T10:42:05;31.27;;;18.38;;
23444;SDS011;11895;48.738;9.320;2023-05-16T10:44:33;24.90;;;18.02;;
23444;SDS011;11895;48.738;9.320;2023-05-16T10:47:06;26.98;;;19.00;;
23444;SDS011;11895;48.738;9.320;2023-05-16T10:49:34;27.27;;;17.60;;
23444;SDS011;11895;48.738;9.320;2023-05-16T10:52:10;26.80;;;17.60;;
23444;SDS011;11895;48.738;9.320;2023-05-16T10:54:41;24.33;;;17.55;;
23444;SDS011;11895;48.738;9.320;2023-05-16T10:57:18;22.73;;;16.92;;
23444;SDS011;11895;48.738;9.320;2023-05-16T10:59:50;27.95;;;17.35;;
23444;SDS011;11895;48.738;9.320;2023-05-16T11:05:08;28.05;;;17.77;;
23444;SDS011;11895;48.738;9.320;2023-05-16T11:07:45;26.70;;;17.40;;
23444;SDS011;11895;48.738;9.320;2023-05-16T11:10:32;29.23;;;16.83;;
23444;SDS011;11895;48.738;9.320;2023-05-16T11:13:07;24.83;;;16.75;;
23444;SDS011;11895;48.738;9.320;2023-05-16T11:15:35;25.38;;;15.77;;
23444;SDS011;11895;48.738;9.320;2023-05-16T11:18:09;24.45;;;15.95;;
23444;SDS011;11895;48.738;9.320;2023-05-16T11:20:42;27.95;;;15.27;;
23444;SDS011;11895;48.738;9.320;2023-05-16T11:25:46;20.10;;;14.93;;
23444;SDS011;11895;48.738;9.320;2023-05-16T11:28:25;20.17;;;14.45;;
23444;SDS011;11895;48.738;9.320;2023-05-16T11:30:54;23.63;;;15.35;;
23444;SDS011;11895;48.738;9.320;2023-05-16T11:33:26;19.42;;;15.05;;
23444;SDS011;11895;48.738;9.320;2023-05-16T11:36:03;20.52;;;14.43;;
23444;SDS011;11895;48.738;9.320;2023-05-16T11:38:41;21.67;;;15.52;;
23444;SDS011;11895;48.738;9.320;2023-05-16T11:41:09;23.77;;;16.00;;
23444;SDS011;11895;48.738;9.320;2023-05-16T11:43:38;23.83;;;15.18;;
23444;SDS011;11895;48.738;9.320;2023-05-16T11:46:12;26.10;;;14.75;;
23444;SDS011;11895;48.738;9.320;2023-05-16T11:48:41;19.90;;;13.52;;
23444;SDS011;11895;48.738;9.320;2023-05-16T11:56:07;15.73;;;11.15;;
23444;SDS011;11895;48.738;9.320;2023-05-16T11:58:35;15.77;;;10.35;;
23444;SDS011;11895;48.738;9.320;2023-05-16T12:01:03;15.13;;;9.70;;
23444;SDS011;11895;48.738;9.320;2023-05-16T12:03:31;19.48;;;10.35;;
23444;SDS011;11895;48.738;9.320;2023-05-16T12:06:01;13.75;;;10.27;;
23444;SDS011;11895;48.738;9.320;2023-05-16T12:08:29;13.23;;;9.57;;
23444;SDS011;11895;48.738;9.320;2023-05-16T12:10:57;14.52;;;10.13;;
23444;SDS011;11895;48.738;9.320;2023-05-16T12:13:25;13.73;;;9.23;;
23444;SDS011;11895;48.738;9.320;2023-05-16T12:15:52;13.65;;;9.25;;
23444;SDS011;11895;48.738;9.320;2023-05-16T12:18:20;18.05;;;9.88;;
23444;SDS011;11895;48.738;9.320;2023-05-16T12:23:19;12.57;;;7.78;;
23444;SDS011;11895;48.738;9.320;2023-05-16T12:25:48;11.75;;;9.13;;
23444;SDS011;11895;48.738;9.320;2023-05-16T12:28:16;12.88;;;9.18;;
23444;SDS011;11895;48.738;9.320;2023-05-16T12:30:44;13.50;;;8.55;;
23444;SDS011;11895;48.738;9.320;2023-05-16T12:33:14;18.35;;;8.10;;
23444;SDS011;11895;48.738;9.320;2023-05-16T12:35:43;10.07;;;7.65;;
23444;SDS011;11895;48.738;9.320;2023-05-16T12:38:13;9.55;;;6.93;;
23444;SDS011;11895;48.738;9.320;2023-05-16T12:40:43;9.52;;;6.80;;
23444;SDS011;11895;48.738;9.320;2023-05-16T12:43:15;11.18;;;6.60;;
23444;SDS011;11895;48.738;9.320;2023-05-16T12:45:50;8.50;;;6.88;;
23444;SDS011;11895;48.738;9.320;2023-05-16T12:48:20;9.38;;;6.63;;
23444;SDS011;11895;48.738;9.320;2023-05-16T12:50:50;9.32;;;5.93;;
23444;SDS011;11895;48.738;9.320;2023-05-16T12:53:18;8.82;;;5.78;;
23444;SDS011;11895;48.738;9.320;2023-05-16T12:55:46;9.52;;;6.47;;
23444;SDS011;11895;48.738;9.320;2023-05-16T12:58:14;8.70;;;5.95;;
23444;SDS011;11895;48.738;9.320;2023-05-16T13:00:43;8.73;;;5.43;;
23444;SDS011;11895;48.738;9.320;2023-05-16T13:03:11;7.45;;;5.22;;
23444;SDS011;11895;48.738;9.320;2023-05-16T13:05:39;6.00;;;4.73;;
23444;SDS011;11895;48.738;9.320;2023-05-16T13:08:06;7.63;;;4.32;;
23444;SDS011;11895;48.738;9.320;2023-05-16T13:10:34;6.20;;;4.68;;
23444;SDS011;11895;48.738;9.320;2023-05-16T13:13:02;8.77;;;5.63;;
23444;SDS011;11895;48.738;9.320;2023-05-16T13:15:29;7.43;;;5.28;;
23444;SDS011;11895;48.738;9.320;2023-05-16T13:17:57;9.23;;;4.93;;
23444;SDS011;11895;48.738;9.320;2023-05-16T13:20:25;11.05;;;5.40;;
23444;SDS011;11895;48.738;9.320;2023-05-16T13:22:52;8.20;;;5.43;;
23444;SDS011;11895;48.738;9.320;2023-05-16T13:25:25;6.20;;;4.65;;
23444;SDS011;11895;48.738;9.320;2023-05-16T13:27:53;5.72;;;4.60;;
23444;SDS011;11895;48.738;9.320;2023-05-16T13:30:25;20.55;;;13.50;;
23444;SDS011;11895;48.738;9.320;2023-05-16T13:32:54;6.38;;;4.18;;
23444;SDS011;11895;48.738;9.320;2023-05-16T13:35:22;8.05;;;3.45;;
23444;SDS011;11895;48.738;9.320;2023-05-16T13:37:49;6.97;;;3.97;;
23444;SDS011;11895;48.738;9.320;2023-05-16T13:40:17;9.55;;;3.92;;
23444;SDS011;11895;48.738;9.320;2023-05-16T13:42:44;10.75;;;3.42;;
23444;SDS011;11895;48.738;9.320;2023-05-16T13:45:11;6.68;;;3.33;;
23444;SDS011;11895;48.738;9.320;2023-05-16T13:47:39;4.32;;;3.22;;
23444;SDS011;11895;48.738;9.320;2023-05-16T13:50:07;6.15;;;3.83;;
23444;SDS011;11895;48.738;9.320;2023-05-16T13:52:35;4.68;;;3.25;;
23444;SDS011;11895;48.738;9.320;2023-05-16T13:55:04;4.60;;;2.90;;
23444;SDS011;11895;48.738;9.320;2023-05-16T13:57:33;4.57;;;2.90;;
23444;SDS011;11895;48.738;9.320;2023-05-16T14:00:01;3.35;;;2.50;;
23444;SDS011;11895;48.738;9.320;2023-05-16T14:02:41;4.40;;;2.30;;
23444;SDS011;11895;48.738;9.320;2023-05-16T14:05:09;3.47;;;2.70;;
23444;SDS011;11895;48.738;9.320;2023-05-16T14:07:36;5.93;;;2.28;;
23444;SDS011;11895;48.738;9.320;2023-05-16T14:10:09;5.03;;;2.40;;
23444;SDS011;11895;48.738;9.320;2023-05-16T14:12:43;7.88;;;2.60;;
23444;SDS011;11895;48.738;9.320;2023-05-16T14:15:10;5.18;;;2.72;;
23444;SDS011;11895;48.738;9.320;2023-05-16T14:17:37;4.68;;;2.70;;
23444;SDS011;11895;48.738;9.320;2023-05-16T14:20:05;3.70;;;2.45;;
23444;SDS011;11895;48.738;9.320;2023-05-16T14:22:36;3.40;;;2.43;;
23444;SDS011;11895;48.738;9.320;2023-05-16T14:25:04;4.22;;;2.60;;
23444;SDS011;11895;48.738;9.320;2023-05-16T14:27:32;4.63;;;2.22;;
23444;SDS011;11895;48.738;9.320;2023-05-16T14:30:00;7.30;;;2.80;;
23444;SDS011;11895;48.738;9.320;2023-05-16T14:32:29;4.35;;;3.00;;
23444;SDS011;11895;48.738;9.320;2023-05-16T14:34:57;8.20;;;2.92;;
23444;SDS011;11895;48.738;9.320;2023-05-16T14:37:24;6.95;;;3.30;;
23444;SDS011;11895;48.738;9.320;2023-05-16T14:39:52;6.78;;;3.25;;
23444;SDS011;11895;48.738;9.320;2023-05-16T14:42:20;5.28;;;2.90;;
23444;SDS011;11895;48.738;9.320;2023-05-16T14:44:50;4.80;;;2.53;;
23444;SDS011;11895;48.738;9.320;2023-05-16T14:47:17;6.30;;;3.13;;
23444;SDS011;11895;48.738;9.320;2023-05-16T14:49:44;5.60;;;2.78;;
23444;SDS011;11895;48.738;9.320;2023-05-16T14:52:12;4.82;;;2.67;;
23444;SDS011;11895;48.738;9.320;2023-05-16T14:54:40;8.32;;;3.08;;
23444;SDS011;11895;48.738;9.320;2023-05-16T14:57:07;3.47;;;2.50;;
23444;SDS011;11895;48.738;9.320;2023-05-16T14:59:34;5.28;;;2.80;;
23444;SDS011;11895;48.738;9.320;2023-05-16T15:02:02;6.75;;;2.47;;
23444;SDS011;11895;48.738;9.320;2023-05-16T15:04:31;5.10;;;2.40;;
23444;SDS011;11895;48.738;9.320;2023-05-16T15:06:58;7.60;;;2.45;;
23444;SDS011;11895;48.738;9.320;2023-05-16T15:09:25;5.07;;;2.03;;
23444;SDS011;11895;48.738;9.320;2023-05-16T15:11:53;11.40;;;3.67;;
23444;SDS011;11895;48.738;9.320;2023-05-16T15:14:20;7.43;;;3.17;;
23444;SDS011;11895;48.738;9.320;2023-05-16T15:16:47;6.13;;;2.55;;
23444;SDS011;11895;48.738;9.320;2023-05-16T15:19:15;7.57;;;3.15;;
23444;SDS011;11895;48.738;9.320;2023-05-16T15:21:46;5.00;;;2.13;;
23444;SDS011;11895;48.738;9.320;2023-05-16T15:24:14;19.13;;;5.63;;
23444;SDS011;11895;48.738;9.320;2023-05-16T15:26:43;11.70;;;4.50;;
23444;SDS011;11895;48.738;9.320;2023-05-16T15:29:11;11.67;;;3.60;;
23444;SDS011;11895;48.738;9.320;2023-05-16T15:31:39;7.15;;;2.85;;
23444;SDS011;11895;48.738;9.320;2023-05-16T15:34:07;4.85;;;2.05;;
23444;SDS011;11895;48.738;9.320;2023-05-16T15:36:34;8.52;;;2.50;;
23444;SDS011;11895;48.738;9.320;2023-05-16T15:39:02;6.97;;;2.47;;
23444;SDS011;11895;48.738;9.320;2023-05-16T15:41:29;6.85;;;2.08;;
23444;SDS011;11895;48.738;9.320;2023-05-16T15:44:16;10.02;;;2.50;;
23444;SDS011;11895;48.738;9.320;2023-05-16T15:46:44;6.57;;;2.47;;
23444;SDS011;11895;48.738;9.320;2023-05-16T15:49:11;5.38;;;2.25;;
23444;SDS011;11895;48.738;9.320;2023-05-16T15:51:39;10.25;;;1.90;;
23444;SDS011;11895;48.738;9.320;2023-05-16T15:54:06;10.25;;;2.22;;
23444;SDS011;11895;48.738;9.320;2023-05-16T15:56:35;6.28;;;1.75;;
23444;SDS011;11895;48.738;9.320;2023-05-16T15:59:08;9.00;;;2.00;;